Meteo Giornale » Osservazioni meteo Germania » Meppen
ore: 10:20 - Osservazioni Meteo Meppen
Lat. 52° 43' N Lon. 7° 19' E Alt. 21 metri s.l.m.
17 °C
Molto Nuvoloso
Temp. 24 Ore
14 °C
19 °C
Sud-Ovest
11.1 Km/h
Dew point 15 °C
Umidità 88 %
Visibilità 10 Km
Il sole sorge alle ore 06:41
Il sole tramonta alle ore 20:19
| Data e Ora | Cielo e Fenomeni | T °C | DP °C | Um. % | Pres. hPa | Vis. km | Vento km/h | |
|---|---|---|---|---|---|---|---|---|
| Oggi h: 10:20 | Molto Nuvoloso | 17 | 15 | 88 | 1017 | 10 | SO 11.1 | |
| Oggi h: 09:20 | Nuvoloso | 17 | 15 | 88 | 1017 | 10 | SO 11.1 | |
| Oggi h: 08:20 | Nuvoloso | 15 | 14 | 93 | 1016 | 10 | S/SO 7.4 | |
| Oggi h: 07:20 | Banco di nebbia | 14 | 14 | 100 | 1016 | 9 | S/SO 7.4 | |
| Oggi h: 06:20 | Banco di nebbia | 14 | 13 | 93 | 1015 | 9 | N 5.5 | |
| Oggi h: 05:20 | Sereno | 14 | 13 | 93 | 1015 | 10 | S/SO 7.4 | |
| Oggi h: 04:20 | Sereno | 14 | 13 | 93 | 1015 | 10 | N 5.5 | |
| Oggi h: 03:20 | Sereno | 14 | 13 | 93 | 1015 | 10 | N 5.5 | |
| Oggi h: 02:20 | Sereno | 14 | 14 | 100 | 1014 | 10 | N 5.5 | |
| Oggi h: 01:20 | Sereno | 15 | 14 | 93 | 1014 | 0 | SO 7.4 | |
| Oggi h: 00:20 | Sereno | 15 | 14 | 93 | 1014 | 0 | S/SO 9.3 | |
| Ieri h: 23:20 | Sereno | 15 | 14 | 93 | 1014 | 0 | SO 9.3 | |
| Ieri h: 22:20 | Sereno | 16 | 14 | 87 | 1013 | 0 | SO 9.3 | |
| Ieri h: 21:20 | Sereno | 16 | 14 | 87 | 1012 | 0 | SO 11.1 | |
| Ieri h: 20:20 | Sereno | 16 | 14 | 87 | 1011 | 0 | SO 9.3 | |
| Ieri h: 19:20 | Sereno | 17 | 14 | 82 | 1010 | 0 | SO 14.8 | |
| Ieri h: 18:20 | Sereno | 16 | 14 | 87 | 1010 | 0 | O/SO 11.1 | |
| Ieri h: 17:20 | Sereno | 17 | 13 | 77 | 1009 | 0 | SO 20.3 | |
| Ieri h: 16:20 | Sereno | 16 | 14 | 87 | 1009 | 0 | S/SO 11.1 | |
| Ieri h: 15:20 | Sereno | 15 | 13 | 87 | 1009 | 0 | O 9.3 | |
| Ieri h: 14:20 | Temporale nelle vicinanze | 18 | 15 | 82 | 1008 | 10 | S/SO 13 | |
| Ieri h: 13:20 | Pioggia | 19 | 14 | 72 | 1007 | 10 | S/SO 16.7 | |
| Ieri h: 12:20 | Pioggia | 17 | 14 | 82 | 1008 | 8 | S 16.7 | |
| Ieri h: 11:20 | Nuvoloso | 19 | 14 | 72 | 1008 | 10 | S 16.7 | |



